Time;durP1;ratioP1;P1;durP2;ratioP2;P2;SDS_P1;SDS_P2;PMS_P1;PMS_P2;Temp;Humidity;BMP_temperature;BMP_pressure;BME280_temperature;BME280_humidity;BME280_pressure;Samples;Min_cycle;Max_cycle;Signal;HPM_P1;HPM_P2
2022/01/18 00:01:17;;;;;;;8.52;1.40;;;;;;;5.22;100.00;103914.25;5088428;28;20048;-38
2022/01/18 00:03:47;;;;;;;8.52;1.63;;;;;;;5.19;100.00;103922.94;5078484;28;20094;-40
2022/01/18 00:06:14;;;;;;;10.63;1.33;;;;;;;5.16;100.00;103915.88;5088094;28;20127;-34
2022/01/18 00:08:42;;;;;;;8.18;1.10;;;;;;;5.15;100.00;103919.69;5079156;28;20045;-37
2022/01/18 00:11:10;;;;;;;8.88;1.52;;;;;;;5.12;100.00;103924.75;5087340;28;20040;-36
2022/01/18 00:13:42;;;;;;;7.45;1.02;;;;;;;5.09;100.00;103928.75;5080811;28;20539;-39
2022/01/18 00:16:27;;;;;;;5.72;1.08;;;;;;;5.06;100.00;103933.78;5086239;28;20082;-36
2022/01/18 00:18:59;;;;;;;7.78;1.40;;;;;;;5.01;100.00;103931.56;5080124;28;20052;-37
2022/01/18 00:21:34;;;;;;;7.22;1.10;;;;;;;4.97;100.00;103937.69;5075888;28;20048;-36
2022/01/18 00:24:02;;;;;;;5.15;1.10;;;;;;;4.92;100.00;103929.09;5083542;28;20060;-33
2022/01/18 00:26:32;;;;;;;7.97;1.00;;;;;;;4.88;100.00;103936.03;5077480;28;20416;-35
2022/01/18 00:29:07;;;;;;;6.03;1.00;;;;;;;4.82;100.00;103929.31;5082570;28;20054;-34
2022/01/18 00:34:05;;;;;;;7.93;1.10;;;;;;;4.73;100.00;103930.44;5081566;28;20051;-32
2022/01/18 00:36:52;;;;;;;3.95;1.00;;;;;;;4.68;100.00;103930.13;5078950;28;20113;-37
2022/01/18 00:39:20;;;;;;;8.80;1.13;;;;;;;4.62;100.00;103928.97;5080184;28;20285;-35
2022/01/18 00:41:48;;;;;;;5.30;1.35;;;;;;;4.59;100.00;103934.03;5078644;28;20044;-34
2022/01/18 00:44:17;;;;;;;6.78;1.52;;;;;;;4.56;100.00;103939.91;5080620;28;20043;-37
2022/01/18 00:46:46;;;;;;;9.35;1.30;;;;;;;4.53;100.00;103940.28;5078403;28;20048;-31
2022/01/18 00:49:16;;;;;;;6.30;1.10;;;;;;;4.49;100.00;103935.13;5080753;28;20059;-39
2022/01/18 00:51:51;;;;;;;6.78;1.23;;;;;;;4.46;100.00;103941.00;5075444;28;20075;-39
2022/01/18 00:54:23;;;;;;;7.05;1.08;;;;;;;4.45;100.00;103941.19;5080950;28;20420;-38
2022/01/18 00:56:53;;;;;;;7.18;1.05;;;;;;;4.41;100.00;103935.16;5077115;28;20051;-35
2022/01/18 00:59:22;;;;;;;6.95;1.02;;;;;;;4.36;100.00;103934.88;5079092;28;20048;-32
2022/01/18 01:01:50;;;;;;;5.88;1.00;;;;;;;4.33;100.00;103932.47;5078424;28;20048;-33
2022/01/18 01:04:21;;;;;;;4.95;0.98;;;;;;;4.27;100.00;103930.41;5086720;28;20106;-35
2022/01/18 01:06:49;;;;;;;5.90;1.52;;;;;;;4.22;100.00;103926.47;5082576;28;20055;-39
2022/01/18 01:09:16;;;;;;;8.50;1.38;;;;;;;4.14;100.00;103924.63;5084980;28;20052;-38
2022/01/18 01:11:44;;;;;;;5.35;1.10;;;;;;;4.08;100.00;103923.44;5081442;28;20054;-42
2022/01/18 01:14:19;;;;;;;10.98;1.55;;;;;;;4.05;100.00;103925.72;5086001;28;20048;-34
2022/01/18 01:16:56;;;;;;;12.45;2.05;;;;;;;4.01;100.00;103924.34;5080003;28;20435;-38
2022/01/18 01:36:35;;;;;;;7.30;1.30;;;;;;;3.88;100.00;103929.59;5081366;28;20048;-35
2022/01/18 01:42:04;;;;;;;8.27;1.33;;;;;;;3.86;100.00;103928.91;5077498;28;20110;-36
2022/01/18 01:44:42;;;;;;;6.50;1.38;;;;;;;3.85;100.00;103921.66;5086086;28;20603;-31
2022/01/18 01:47:12;;;;;;;4.35;0.90;;;;;;;3.81;100.00;103924.78;5077287;28;20198;-40
2022/01/18 01:49:41;;;;;;;6.65;1.25;;;;;;;3.79;100.00;103924.13;5085954;28;20489;-33
2022/01/18 01:52:11;;;;;;;8.70;1.85;;;;;;;3.76;100.00;103932.75;5080080;28;20135;-37
2022/01/18 01:54:40;;;;;;;6.63;1.45;;;;;;;3.72;100.00;103923.09;5089821;28;20143;-38
2022/01/18 01:57:10;;;;;;;6.03;1.27;;;;;;;3.72;100.00;103936.06;5082856;28;20044;-35
2022/01/18 01:59:38;;;;;;;9.80;1.63;;;;;;;3.70;100.00;103941.75;5072258;28;20425;-39
2022/01/18 02:02:06;;;;;;;6.70;1.30;;;;;;;3.69;100.00;103930.88;5083515;28;20052;-36
2022/01/18 02:04:34;;;;;;;7.95;1.55;;;;;;;3.70;100.00;103932.59;5087584;28;20390;-39
2022/01/18 02:07:02;;;;;;;7.28;1.70;;;;;;;3.69;100.00;103934.50;5085786;28;20040;-33
2022/01/18 02:09:31;;;;;;;9.18;1.50;;;;;;;3.68;100.00;103934.69;5091065;28;20044;-35
2022/01/18 02:12:00;;;;;;;5.78;0.90;;;;;;;3.66;100.00;103934.84;5085975;28;20044;-39
2022/01/18 02:14:31;;;;;;;7.80;1.40;;;;;;;3.64;100.00;103930.53;5071260;28;20055;-41
2022/01/18 02:22:31;;;;;;;10.00;1.55;;;;;;;3.61;100.00;103917.09;5083869;28;20044;-36
2022/01/18 02:24:59;;;;;;;19.30;2.33;;;;;;;3.61;100.00;103923.47;5089987;28;20485;-32
2022/01/18 02:27:28;;;;;;;8.20;1.58;;;;;;;3.63;100.00;103920.53;5085489;28;20482;-37
2022/01/18 02:29:56;;;;;;;9.60;1.40;;;;;;;3.63;100.00;103921.41;5087142;28;20047;-36
2022/01/18 02:32:24;;;;;;;14.15;1.85;;;;;;;3.64;100.00;103906.56;5090100;28;20528;-37
2022/01/18 02:34:51;;;;;;;14.43;2.00;;;;;;;3.68;100.00;103907.06;5081758;28;20429;-37
2022/01/18 02:37:19;;;;;;;12.30;1.67;;;;;;;3.71;100.00;103912.25;5086112;28;20040;-35
2022/01/18 02:39:48;;;;;;;10.70;1.85;;;;;;;3.73;100.00;103904.63;5085091;28;20047;-33
2022/01/18 02:42:22;;;;;;;16.70;2.13;;;;;;;3.75;100.00;103900.66;5087961;28;20539;-37
2022/01/18 02:44:51;;;;;;;12.45;1.85;;;;;;;3.78;100.00;103907.72;5082823;28;20506;-38
2022/01/18 02:47:19;;;;;;;19.38;2.03;;;;;;;3.83;100.00;103899.75;5088259;28;20048;-35
2022/01/18 02:49:47;;;;;;;7.95;1.50;;;;;;;3.86;100.00;103902.16;5081813;28;20056;-37
2022/01/18 02:52:15;;;;;;;17.60;2.35;;;;;;;3.89;100.00;103901.78;5088644;28;20040;-37
2022/01/18 02:54:44;;;;;;;18.23;2.30;;;;;;;3.93;100.00;103899.53;5080768;28;20489;-38
2022/01/18 02:57:15;;;;;;;11.45;1.70;;;;;;;3.95;100.00;103903.84;5089181;28;20048;-38
2022/01/18 02:59:48;;;;;;;17.05;2.20;;;;;;;3.97;100.00;103903.66;5079261;28;20044;-40
2022/01/18 03:05:08;;;;;;;15.05;1.42;;;;;;;3.99;100.00;103902.44;5078943;28;20044;-37
2022/01/18 03:07:36;;;;;;;13.35;2.30;;;;;;;4.02;100.00;103906.72;5089163;28;20171;-35
2022/01/18 03:10:06;;;;;;;20.23;2.08;;;;;;;4.05;100.00;103904.47;5080011;28;20040;-35
2022/01/18 03:12:35;;;;;;;24.98;2.35;;;;;;;4.08;100.00;103909.63;5088492;28;20040;-32
2022/01/18 03:15:03;;;;;;;13.88;1.55;;;;;;;4.11;100.00;103900.97;5080139;28;20045;-34
2022/01/18 03:17:31;;;;;;;19.65;2.03;;;;;;;4.15;100.00;103907.00;5089148;28;20036;-34
2022/01/18 03:19:59;;;;;;;14.23;2.30;;;;;;;4.20;100.00;103912.00;5079837;28;20413;-38
2022/01/18 03:22:28;;;;;;;17.60;1.65;;;;;;;4.23;100.00;103915.25;5088315;28;20048;-38
2022/01/18 03:25:01;;;;;;;18.25;2.13;;;;;;;4.25;100.00;103918.69;5082599;28;20048;-34
2022/01/18 03:30:16;;;;;;;11.68;1.30;;;;;;;4.28;100.00;103926.63;5081098;28;20040;-36
2022/01/18 03:32:43;;;;;;;9.38;1.45;;;;;;;4.30;100.00;103921.78;5087690;28;20036;-37
2022/01/18 03:35:11;;;;;;;25.10;1.90;;;;;;;4.31;100.00;103922.63;5082123;28;20266;-39
2022/01/18 03:37:42;;;;;;;11.35;1.90;;;;;;;4.32;100.00;103927.97;5085960;28;20041;-36
2022/01/18 03:40:11;;;;;;;28.13;2.60;;;;;;;4.31;100.00;103923.50;5083057;28;20049;-39
2022/01/18 03:42:42;;;;;;;11.77;1.73;;;;;;;4.32;100.00;103924.34;5085034;28;20040;-39
2022/01/18 03:45:13;;;;;;;11.18;1.60;;;;;;;4.32;100.00;103927.97;5084059;28;20053;-36
2022/01/18 03:47:44;;;;;;;9.03;1.37;;;;;;;4.32;100.00;103927.97;5079274;28;20376;-31
2022/01/18 03:50:14;;;;;;;16.00;1.70;;;;;;;4.31;100.00;103926.25;5082183;28;20060;-32
2022/01/18 03:52:43;;;;;;;8.95;1.23;;;;;;;4.34;100.00;103909.31;5078506;28;20422;-35
2022/01/18 03:55:13;;;;;;;15.93;1.63;;;;;;;4.34;100.00;103919.50;5081071;28;20047;-32
2022/01/18 03:57:40;;;;;;;11.50;1.55;;;;;;;4.32;100.00;103918.81;5061934;28;20056;-37
2022/01/18 04:00:12;;;;;;;8.20;0.82;;;;;;;4.31;100.00;103931.78;5087649;28;20052;-37
2022/01/18 04:02:40;;;;;;;8.70;1.40;;;;;;;4.29;100.00;103928.34;5084005;28;20040;-29
2022/01/18 04:05:10;;;;;;;11.73;1.60;;;;;;;4.29;100.00;103931.09;5085290;28;20086;-34
2022/01/18 04:07:38;;;;;;;7.43;1.35;;;;;;;4.28;100.00;103932.16;5081836;28;20044;-37
2022/01/18 04:10:07;;;;;;;21.20;1.98;;;;;;;4.29;100.00;103933.88;5086096;28;20047;-33
2022/01/18 04:12:35;;;;;;;7.25;1.38;;;;;;;4.30;100.00;103923.66;5080104;28;20055;-37
2022/01/18 04:15:03;;;;;;;20.13;1.90;;;;;;;4.30;100.00;103931.97;5086894;28;20052;-34
2022/01/18 04:17:47;;;;;;;18.38;1.90;;;;;;;4.31;100.00;103931.78;5076642;28;20036;-41
2022/01/18 04:25:58;;;;;;;6.28;1.10;;;;;;;4.29;100.00;103925.56;5079078;28;20040;-38
2022/01/18 04:28:34;;;;;;;11.88;1.15;;;;;;;4.28;100.00;103932.16;5081468;28;20048;-34
2022/01/18 04:31:02;;;;;;;10.15;1.27;;;;;;;4.25;100.00;103926.13;5078560;28;20075;-32
2022/01/18 04:33:30;;;;;;;7.30;1.20;;;;;;;4.22;100.00;103930.09;5081900;28;20040;-35
2022/01/18 04:36:00;;;;;;;4.43;0.80;;;;;;;4.18;100.00;103920.47;5077388;28;20528;-30
2022/01/18 04:38:27;;;;;;;6.68;0.80;;;;;;;4.10;100.00;103920.50;5083014;28;20058;-35
2022/01/18 04:41:00;;;;;;;4.90;0.82;;;;;;;4.05;100.00;103914.66;5076527;28;20083;-31
2022/01/18 04:43:43;;;;;;;8.15;0.80;;;;;;;3.98;100.00;103911.78;5075550;28;20405;-40
2022/01/18 04:48:57;;;;;;;5.75;0.80;;;;;;;3.80;100.00;103898.19;5081507;28;20052;-37
2022/01/18 04:51:27;;;;;;;4.10;0.60;;;;;;;3.73;100.00;103894.44;5086251;28;20398;-33
2022/01/18 04:53:57;;;;;;;3.97;0.75;;;;;;;3.67;100.00;103891.53;5079627;28;20416;-35
2022/01/18 04:56:29;;;;;;;3.92;0.60;;;;;;;3.61;100.00;103893.09;5087007;28;20466;-36
2022/01/18 04:58:56;;;;;;;10.07;0.90;;;;;;;3.55;100.00;103884.69;5077330;28;20052;-32
2022/01/18 05:01:24;;;;;;;3.70;0.93;;;;;;;3.49;100.00;103883.50;5069350;28;20087;-34
2022/01/18 05:03:52;;;;;;;2.90;0.82;;;;;;;3.46;100.00;103892.13;5078556;28;20036;-36
2022/01/18 05:06:22;;;;;;;8.40;1.52;;;;;;;3.41;100.00;103891.78;5086618;28;20048;-34
2022/01/18 05:08:52;;;;;;;5.88;1.15;;;;;;;3.37;100.00;103898.72;5077796;28;20048;-33
2022/01/18 05:11:22;;;;;;;3.85;0.90;;;;;;;3.32;100.00;103898.41;5086727;28;20471;-35
2022/01/18 05:14:05;;;;;;;7.63;0.95;;;;;;;3.28;100.00;103899.78;5078230;28;20045;-38
2022/01/18 05:16:56;;;;;;;4.70;0.82;;;;;;;3.21;100.00;103894.09;5087343;28;20048;-34
2022/01/18 05:19:37;;;;;;;7.50;1.00;;;;;;;3.17;100.00;103903.78;5077884;28;20093;-39
2022/01/18 05:24:51;;;;;;;3.03;0.70;;;;;;;3.08;100.00;103900.16;5077893;28;20528;-37
2022/01/18 05:27:19;;;;;;;3.03;0.80;;;;;;;3.05;100.00;103899.66;5090353;28;20056;-37
2022/01/18 05:29:47;;;;;;;6.95;1.00;;;;;;;3.01;100.00;103901.03;5082258;28;20067;-39
2022/01/18 05:32:16;;;;;;;4.78;0.80;;;;;;;2.97;100.00;103903.28;5090945;28;20052;-38
2022/01/18 05:34:45;;;;;;;12.20;1.63;;;;;;;2.92;100.00;103896.56;5080996;28;20052;-36
2022/01/18 05:37:13;;;;;;;6.45;1.20;;;;;;;2.89;100.00;103900.53;5090432;28;20408;-33
2022/01/18 05:39:40;;;;;;;3.05;0.80;;;;;;;2.86;100.00;103902.78;5081419;28;20040;-36
2022/01/18 05:42:10;;;;;;;3.65;0.90;;;;;;;2.85;100.00;103892.78;5079491;28;20505;-37
2022/01/18 05:44:38;;;;;;;4.90;1.23;;;;;;;2.84;100.00;103896.56;5083330;28;20052;-34
2022/01/18 05:47:06;;;;;;;2.95;0.85;;;;;;;2.82;100.00;103901.38;5080630;28;20050;-40
2022/01/18 05:49:33;;;;;;;5.15;1.00;;;;;;;2.78;100.00;103895.38;5084090;28;20080;-37
2022/01/18 05:52:01;;;;;;;3.25;0.80;;;;;;;2.74;100.00;103894.00;5090113;28;20032;-37
2022/01/18 05:54:29;;;;;;;5.20;1.33;;;;;;;2.71;100.00;103897.97;5082735;28;20511;-34
2022/01/18 05:56:56;;;;;;;3.28;1.10;;;;;;;2.68;100.00;103891.94;5080413;28;20052;-33
2022/01/18 05:59:34;;;;;;;3.22;1.08;;;;;;;2.65;100.00;103901.41;5083779;28;20067;-36
2022/01/18 06:02:13;;;;;;;2.97;1.00;;;;;;;2.62;100.00;103903.63;5079780;28;20063;-35
2022/01/18 06:07:27;;;;;;;8.80;2.83;;;;;;;2.55;100.00;103913.63;5091467;28;20764;-31
2022/01/18 06:09:56;;;;;;;5.05;1.63;;;;;;;2.54;100.00;103903.66;5085379;28;20485;-36
2022/01/18 06:12:24;;;;;;;6.85;1.25;;;;;;;2.56;100.00;103915.38;5079872;28;20044;-37
2022/01/18 06:14:53;;;;;;;4.10;1.13;;;;;;;2.59;100.00;103920.53;5082343;28;20040;-34
2022/01/18 06:17:21;;;;;;;3.30;0.88;;;;;;;2.63;100.00;103919.13;5081580;28;20517;-37
2022/01/18 06:19:49;;;;;;;6.55;0.70;;;;;;;2.63;100.00;103916.38;5064610;28;20067;-36
2022/01/18 06:22:16;;;;;;;4.15;0.75;;;;;;;2.66;100.00;103927.06;5082578;28;20060;-35
2022/01/18 06:24:44;;;;;;;11.57;0.98;;;;;;;2.65;100.00;103926.22;5084317;28;20489;-39
2022/01/18 06:27:12;;;;;;;4.38;0.60;;;;;;;2.64;100.00;103923.63;5084690;28;20048;-37
2022/01/18 06:29:40;;;;;;;6.85;0.50;;;;;;;2.61;100.00;103926.72;5077719;28;20045;-38
2022/01/18 06:32:09;;;;;;;3.22;0.60;;;;;;;2.55;100.00;103924.66;5086811;28;20048;-32
2022/01/18 06:34:37;;;;;;;3.80;0.80;;;;;;;2.50;100.00;103929.81;5078741;28;20058;-36
2022/01/18 06:37:06;;;;;;;10.75;0.75;;;;;;;2.46;100.00;103936.69;5085688;28;20044;-39
2022/01/18 06:39:34;;;;;;;3.50;0.47;;;;;;;2.40;100.00;103939.09;5078535;28;20092;-38
2022/01/18 06:42:10;;;;;;;8.25;0.82;;;;;;;2.37;100.00;103933.09;5086639;28;20106;-40
2022/01/18 06:44:38;;;;;;;3.47;0.50;;;;;;;2.35;100.00;103936.00;5076690;28;20052;-36
2022/01/18 06:47:06;;;;;;;15.32;1.40;;;;;;;2.35;100.00;103933.25;5087308;28;20051;-36
2022/01/18 06:49:35;;;;;;;7.18;1.20;;;;;;;2.33;100.00;103927.03;5078423;28;20051;-33
2022/01/18 06:52:04;;;;;;;14.40;2.03;;;;;;;2.31;100.00;103923.59;5086039;28;20048;-32
2022/01/18 06:54:33;;;;;;;5.70;1.48;;;;;;;2.28;100.00;103929.44;5078442;28;20056;-37
2022/01/18 06:57:02;;;;;;;4.35;1.42;;;;;;;2.25;100.00;103924.25;5081661;28;20039;-39
2022/01/18 06:59:30;;;;;;;3.25;1.10;;;;;;;2.26;100.00;103930.63;5087168;28;20045;-31
2022/01/18 07:01:58;;;;;;;5.28;2.22;;;;;;;2.26;100.00;103934.25;5084274;28;20053;-32
2022/01/18 07:04:26;;;;;;;13.75;2.70;;;;;;;2.25;100.00;103940.78;5087701;28;20122;-39
2022/01/18 07:06:55;;;;;;;21.33;3.53;;;;;;;2.25;100.00;103951.81;5089060;28;20040;-35
2022/01/18 07:09:23;;;;;;;6.93;1.90;;;;;;;2.22;100.00;103941.13;5079774;28;20051;-35
2022/01/18 07:11:51;;;;;;;4.22;1.42;;;;;;;2.21;100.00;103946.78;5080701;28;20043;-37
2022/01/18 07:14:19;;;;;;;3.97;1.38;;;;;;;2.20;100.00;103943.19;5078860;28;20044;-32
2022/01/18 07:16:47;;;;;;;6.90;1.20;;;;;;;2.18;100.00;103937.00;5081204;28;20460;-33
2022/01/18 07:19:15;;;;;;;7.60;1.10;;;;;;;2.17;100.00;103948.19;5080062;28;20047;-34
2022/01/18 07:21:43;;;;;;;2.13;1.00;;;;;;;2.14;100.00;103941.13;5079737;28;20617;-35
2022/01/18 07:24:18;;;;;;;2.53;0.73;;;;;;;2.09;100.00;103946.25;5082639;28;20123;-34
2022/01/18 07:26:46;;;;;;;4.28;0.80;;;;;;;2.02;100.00;103946.06;5077413;28;20482;-30
2022/01/18 07:29:14;;;;;;;6.57;1.00;;;;;;;1.99;100.00;103948.31;5082549;28;20052;-33
2022/01/18 07:31:42;;;;;;;4.28;0.77;;;;;;;1.94;100.00;103935.03;5076454;28;20125;-33
2022/01/18 07:34:13;;;;;;;2.00;0.90;;;;;;;1.95;100.00;103938.66;5078553;28;20396;-33
2022/01/18 07:36:41;;;;;;;2.75;0.70;;;;;;;1.97;100.00;103931.09;5086924;28;20051;-36
2022/01/18 07:39:09;;;;;;;4.88;1.48;;;;;;;1.99;100.00;103940.03;5077756;28;20051;-34
2022/01/18 07:41:39;;;;;;;1.30;0.55;;;;;;;1.99;100.00;103923.53;5086879;28;20063;-34
2022/01/18 07:44:07;;;;;;;2.97;0.90;;;;;;;1.99;100.00;103929.03;5077770;28;20058;-35
2022/01/18 07:46:34;;;;;;;2.45;0.80;;;;;;;1.98;100.00;103930.06;5086881;28;20108;-37
2022/01/18 07:49:02;;;;;;;1.52;0.70;;;;;;;1.98;100.00;103935.56;5078631;28;20048;-36
2022/01/18 07:51:30;;;;;;;1.77;0.75;;;;;;;1.99;100.00;103938.16;5087710;28;20051;-35
2022/01/18 07:53:58;;;;;;;2.38;0.88;;;;;;;1.99;100.00;103940.03;5079125;28;20055;-35
2022/01/18 07:56:26;;;;;;;2.45;0.95;;;;;;;1.97;100.00;103937.47;5086095;28;20486;-40
2022/01/18 07:58:55;;;;;;;3.03;1.00;;;;;;;1.94;100.00;103935.03;5082422;28;20048;-31
2022/01/18 08:01:22;;;;;;;3.17;0.80;;;;;;;1.91;100.00;103932.59;5086553;28;20040;-31
2022/01/18 08:03:50;;;;;;;3.35;0.80;;;;;;;1.90;100.00;103932.78;5083053;28;20044;-39
2022/01/18 08:06:18;;;;;;;1.48;0.80;;;;;;;1.89;100.00;103931.91;5085725;28;20051;-38
2022/01/18 08:08:46;;;;;;;6.35;0.95;;;;;;;1.91;100.00;103940.00;5082435;28;20045;-35
2022/01/18 08:11:13;;;;;;;2.55;1.00;;;;;;;1.93;100.00;103935.19;5084759;28;20048;-33
2022/01/18 08:13:47;;;;;;;1.77;0.80;;;;;;;1.93;100.00;103929.69;5088081;28;20044;-33
2022/01/18 08:16:45;;;;;;;2.95;0.90;;;;;;;1.95;100.00;103928.50;5060157;28;20048;-36
2022/01/18 08:19:12;;;;;;;5.75;0.98;;;;;;;1.93;100.00;103924.19;5090794;28;20052;-34
2022/01/18 08:21:40;;;;;;;1.55;0.60;;;;;;;1.91;100.00;103932.59;5076332;28;20591;-32
2022/01/18 08:24:12;;;;;;;;;;;;;;;1.91;100.00;103927.09;5081028;28;20120;-40
2022/01/18 08:26:40;;;;;;;14.23;1.50;;;;;;;1.90;100.00;103925.38;5078222;28;19952;-33
2022/01/18 08:29:11;;;;;;;6.60;1.00;;;;;;;1.90;100.00;103925.38;5078421;28;20288;-34
2022/01/18 08:31:41;;;;;;;3.47;0.80;;;;;;;1.91;100.00;103926.22;5079407;28;20055;-32
2022/01/18 08:34:10;;;;;;;4.05;0.85;;;;;;;1.92;100.00;103933.47;5083986;28;20048;-34
2022/01/18 08:36:38;;;;;;;6.65;0.85;;;;;;;1.96;100.00;103930.22;5080762;28;20417;-34
2022/01/18 08:39:07;;;;;;;6.75;0.93;;;;;;;1.99;100.00;103929.03;5085247;28;20497;-37
2022/01/18 08:41:35;;;;;;;9.65;1.00;;;;;;;1.98;100.00;103933.66;5078946;28;20050;-33
2022/01/18 08:44:03;;;;;;;4.60;0.95;;;;;;;2.00;100.00;103927.97;5085989;28;20044;-36
2022/01/18 08:46:31;;;;;;;2.13;0.80;;;;;;;2.05;100.00;103925.59;5077946;28;20361;-33
2022/01/18 08:49:00;;;;;;;7.05;1.10;;;;;;;2.09;100.00;103929.72;5086568;28;20054;-37
2022/01/18 08:51:28;;;;;;;11.27;1.02;;;;;;;2.11;100.00;103919.41;5077080;28;20043;-40
2022/01/18 08:53:56;;;;;;;3.40;0.93;;;;;;;2.11;100.00;103924.91;5086572;28;20085;-41
2022/01/18 08:56:24;;;;;;;6.30;0.90;;;;;;;2.12;100.00;103923.03;5078013;28;20405;-37
2022/01/18 08:59:12;;;;;;;2.35;0.98;;;;;;;2.15;100.00;103926.31;5086338;28;20032;-34
2022/01/18 09:01:40;;;;;;;7.38;0.75;;;;;;;2.22;100.00;103924.59;5059345;28;20051;-37
2022/01/18 09:04:09;;;;;;;3.97;0.95;;;;;;;2.29;100.00;103930.31;5085649;28;20044;-37
2022/01/18 09:06:38;;;;;;;2.33;0.63;;;;;;;2.33;100.00;103918.78;5077847;28;20464;-37
2022/01/18 09:09:06;;;;;;;2.85;1.00;;;;;;;2.38;100.00;103923.78;5085744;28;20048;-35
2022/01/18 09:11:33;;;;;;;8.73;0.95;;;;;;;2.45;100.00;103927.56;5078542;28;20040;-36
2022/01/18 09:14:01;;;;;;;4.00;1.00;;;;;;;2.54;100.00;103926.56;5084875;28;20056;-37
2022/01/18 09:16:29;;;;;;;6.75;1.25;;;;;;;2.67;100.00;103923.28;5081087;28;20044;-38
2022/01/18 09:18:57;;;;;;;6.10;1.20;;;;;;;2.80;100.00;103917.28;5082351;28;20044;-37
2022/01/18 09:21:27;;;;;;;8.73;1.85;;;;;;;2.91;100.00;103919.66;5082247;28;20052;-34
2022/01/18 09:23:55;;;;;;;6.70;1.40;;;;;;;3.00;100.00;103924.13;5086665;28;20058;-31
2022/01/18 09:26:23;;;;;;;11.77;1.40;;;;;;;3.03;100.00;103932.91;5081280;28;20040;-39
2022/01/18 09:28:51;;;;;;;2.97;1.35;;;;;;;3.06;100.00;103935.34;5083974;28;20048;-36
2022/01/18 09:31:22;;;;;;;9.32;1.60;;;;;;;3.13;100.00;103932.75;5087108;28;20056;-32
2022/01/18 09:33:50;;;;;;;10.77;1.63;;;;;;;3.21;100.00;103931.84;5077405;28;20185;-35
2022/01/18 09:36:18;;;;;;;7.03;1.20;;;;;;;3.31;100.00;103938.06;5078706;28;20111;-37
2022/01/18 09:38:47;;;;;;;8.13;1.50;;;;;;;3.45;100.00;103940.09;5079011;28;20048;-37
2022/01/18 09:41:17;;;;;;;12.02;1.58;;;;;;;3.47;100.00;103949.94;5075376;28;20041;-36
2022/01/18 09:43:45;;;;;;;4.70;1.20;;;;;;;3.44;100.00;103950.28;5080607;28;20059;-33
2022/01/18 09:46:14;;;;;;;2.75;1.20;;;;;;;3.42;100.00;103945.97;5059205;28;20072;-40
2022/01/18 09:48:42;;;;;;;11.80;1.60;;;;;;;3.41;100.00;103950.63;5083040;28;20052;-41
2022/01/18 09:51:10;;;;;;;8.48;1.42;;;;;;;3.41;100.00;103953.38;5074996;28;20413;-39
2022/01/18 09:53:38;;;;;;;6.88;1.20;;;;;;;3.47;100.00;103955.44;5065678;28;20044;-37
2022/01/18 09:56:08;;;;;;;12.52;1.50;;;;;;;3.57;100.00;103946.97;5074630;28;20513;-37
2022/01/18 09:58:36;;;;;;;13.18;1.60;;;;;;;3.69;100.00;103952.97;5083281;28;20075;-34
2022/01/18 10:01:04;;;;;;;9.48;1.73;;;;;;;3.79;100.00;103959.16;5074128;28;20513;-30
2022/01/18 10:03:34;;;;;;;8.25;1.48;;;;;;;3.87;100.00;103955.50;5083331;28;20093;-38
2022/01/18 10:06:04;;;;;;;7.63;1.60;;;;;;;3.94;100.00;103954.63;5074906;28;20445;-34
2022/01/18 10:08:38;;;;;;;15.27;1.75;;;;;;;4.03;100.00;103955.41;5069991;28;20093;-39
2022/01/18 10:11:14;;;;;;;10.68;1.60;;;;;;;4.13;100.00;103950.56;5075222;28;20050;-38
2022/01/18 10:13:42;;;;;;;3.05;1.42;;;;;;;4.21;100.00;103956.00;5081085;28;20060;-35
2022/01/18 10:16:11;;;;;;;14.88;1.80;;;;;;;4.31;100.00;103956.66;5087921;28;20048;-32
2022/01/18 10:18:47;;;;;;;9.80;1.63;;;;;;;4.43;100.00;103957.09;5083418;28;20462;-37
2022/01/18 10:21:26;;;;;;;8.05;2.08;;;;;;;4.57;100.00;103950.81;5087206;28;20059;-36
2022/01/18 10:24:11;;;;;;;8.77;2.00;;;;;;;4.69;100.00;103951.22;5083113;28;20051;-38
2022/01/18 10:26:42;;;;;;;8.13;2.05;;;;;;;4.83;100.00;103944.88;5079079;28;20389;-32
2022/01/18 10:29:12;;;;;;;4.57;2.00;;;;;;;4.96;100.00;103938.75;5081703;28;20036;-38
2022/01/18 10:31:45;;;;;;;5.47;1.90;;;;;;;5.07;100.00;103936.38;5088061;28;20044;-37
2022/01/18 10:34:39;;;;;;;9.18;2.15;;;;;;;5.20;100.00;103939.34;5082757;28;20043;-36
2022/01/18 10:37:10;;;;;;;5.77;3.00;;;;;;;5.33;100.00;103944.25;5078912;28;20134;-33
2022/01/18 10:39:41;;;;;;;15.07;3.17;;;;;;;5.44;100.00;103932.69;5080622;28;20041;-38
2022/01/18 10:42:19;;;;;;;8.63;3.10;;;;;;;5.60;100.00;103939.09;5076231;28;20412;-35
2022/01/18 10:44:48;;;;;;;12.43;4.03;;;;;;;5.74;100.00;103944.66;5085895;28;20050;-38
2022/01/18 10:47:17;;;;;;;10.88;3.47;;;;;;;5.90;100.00;103940.84;5088779;28;20049;-36
2022/01/18 10:49:47;;;;;;;12.95;4.20;;;;;;;6.00;100.00;103938.63;5083025;28;20518;-37
2022/01/18 10:52:18;;;;;;;18.52;4.13;;;;;;;6.07;100.00;103936.81;5079067;28;20083;-33
2022/01/18 10:54:47;;;;;;;13.63;4.28;;;;;;;6.21;100.00;103937.84;5082305;28;20063;-37
2022/01/18 10:57:20;;;;;;;15.75;4.18;;;;;;;6.33;100.00;103930.75;5077627;28;20044;-32
2022/01/18 10:59:48;;;;;;;;;;;;;;;6.43;100.00;103934.03;5082058;28;20052;-35
2022/01/18 11:02:18;;;;;;;15.65;3.67;;;;;;;6.52;100.00;103932.00;5086197;28;19927;-39
2022/01/18 11:04:48;;;;;;;14.13;3.13;;;;;;;6.64;100.00;103938.75;5083646;28;20053;-35
2022/01/18 11:07:18;;;;;;;11.57;2.88;;;;;;;6.72;100.00;103935.00;5086774;28;20040;-31
2022/01/18 11:09:47;;;;;;;18.77;3.63;;;;;;;6.73;100.00;103925.63;5084332;28;20474;-34
2022/01/18 11:12:15;;;;;;;9.88;3.25;;;;;;;6.72;100.00;103929.44;5085024;28;20078;-35
2022/01/18 11:14:47;;;;;;;9.98;3.45;;;;;;;6.72;100.00;103935.00;5084331;28;20044;-36
2022/01/18 11:17:22;;;;;;;15.65;3.70;;;;;;;6.72;100.00;103932.22;5084554;28;20043;-37
2022/01/18 11:19:55;;;;;;;26.48;3.38;;;;;;;6.67;100.00;103931.94;5084247;28;20044;-37
2022/01/18 11:22:26;;;;;;;8.60;2.88;;;;;;;6.66;100.00;103924.69;5084626;28;20481;-35
2022/01/18 11:24:58;;;;;;;9.88;2.95;;;;;;;6.60;100.00;103933.78;5083835;28;20044;-37
2022/01/18 11:27:28;;;;;;;13.82;3.10;;;;;;;6.55;100.00;103931.63;5081056;28;20052;-34
2022/01/18 11:29:58;;;;;;;20.73;2.60;;;;;;;6.49;100.00;103926.84;5079097;28;20092;-38
2022/01/18 11:32:28;;;;;;;17.70;3.17;;;;;;;6.42;100.00;103929.53;5081292;28;20052;-37
2022/01/18 11:35:05;;;;;;;12.27;3.45;;;;;;;6.38;100.00;103919.06;5077768;28;20056;-31
2022/01/18 11:37:41;;;;;;;17.55;4.07;;;;;;;6.38;100.00;103916.28;5082636;28;20103;-37
2022/01/18 11:40:11;;;;;;;16.00;3.42;;;;;;;6.36;100.00;103918.41;5076592;28;20056;-35
2022/01/18 11:42:49;;;;;;;9.65;3.03;;;;;;;6.36;100.00;103912.84;5082556;28;20056;-37
2022/01/18 11:45:37;;;;;;;21.50;3.40;;;;;;;6.33;100.00;103914.09;5076962;28;20055;-36
2022/01/18 11:48:10;;;;;;;9.10;3.13;;;;;;;6.31;100.00;103921.75;5090045;28;20044;-36
2022/01/18 11:50:41;;;;;;;19.35;3.80;;;;;;;6.31;100.00;103916.22;5080544;28;20044;-32
2022/01/18 11:53:38;;;;;;;36.07;4.30;;;;;;;6.30;100.00;103914.50;5080647;28;20064;-38
2022/01/18 11:56:13;;;;;;;16.42;4.25;;;;;;;6.34;100.00;103918.59;5086862;28;20048;-35
2022/01/18 11:58:43;;;;;;;24.35;4.78;;;;;;;6.36;100.00;103919.25;5084898;28;20044;-32
2022/01/18 12:01:13;;;;;;;28.85;4.53;;;;;;;6.35;100.00;103916.69;5078960;28;20126;-39
2022/01/18 12:03:47;;;;;;;19.90;4.28;;;;;;;6.26;100.00;103918.69;5080173;28;20044;-38
2022/01/18 12:06:16;;;;;;;21.00;4.40;;;;;;;6.20;100.00;103900.91;5079334;28;20134;-36
2022/01/18 12:08:45;;;;;;;12.95;4.15;;;;;;;6.22;100.00;103906.28;5080314;28;20052;-34
2022/01/18 12:11:36;;;;;;;23.17;4.40;;;;;;;6.25;100.00;103905.88;5077601;28;20501;-38
2022/01/18 12:14:05;;;;;;;32.72;4.75;;;;;;;6.25;100.00;103905.03;5078433;28;20508;-37
2022/01/18 12:16:34;;;;;;;22.02;4.72;;;;;;;6.21;100.00;103904.56;5078961;28;20051;-39
2022/01/18 12:19:05;;;;;;;41.53;5.15;;;;;;;6.22;100.00;103901.59;5081053;28;20405;-35
2022/01/18 12:21:35;;;;;;;13.65;4.65;;;;;;;6.25;100.00;103907.81;5076669;28;20074;-41
2022/01/18 12:24:18;;;;;;;14.68;4.60;;;;;;;6.27;100.00;103903.78;5082212;28;20464;-39